sensor_id;sensor_type;location;lat;lon;timestamp;pressure;altitude;pressure_sealevel;temperature;humidity
37132;BME280;23035;50.032;21.978;2022-07-22T00:04:51;67255.75;;;19.73;100.00
37132;BME280;23035;50.032;21.978;2022-07-22T00:10:00;67253.06;;;19.70;100.00
37132;BME280;23035;50.032;21.978;2022-07-22T00:15:06;67246.56;;;19.64;100.00
37132;BME280;23035;50.032;21.978;2022-07-22T00:20:13;67228.75;;;19.47;100.00
37132;BME280;23035;50.032;21.978;2022-07-22T00:25:17;67197.44;;;19.18;100.00
37132;BME280;23035;50.032;21.978;2022-07-22T00:30:21;67171.59;;;18.96;100.00
37132;BME280;23035;50.032;21.978;2022-07-22T00:35:26;67206.53;;;19.24;100.00
37132;BME280;23035;50.032;21.978;2022-07-22T00:40:30;67234.19;;;19.55;100.00
37132;BME280;23035;50.032;21.978;2022-07-22T00:45:34;67252.53;;;19.70;100.00
37132;BME280;23035;50.032;21.978;2022-07-22T00:50:39;67267.63;;;19.84;100.00
37132;BME280;23035;50.032;21.978;2022-07-22T00:55:45;67207.16;;;19.27;100.00
37132;BME280;23035;50.032;21.978;2022-07-22T01:00:48;67223.88;;;19.43;100.00
37132;BME280;23035;50.032;21.978;2022-07-22T01:05:54;67124.63;;;18.52;100.00
37132;BME280;23035;50.032;21.978;2022-07-22T01:11:06;67175.38;;;19.00;100.00
37132;BME280;23035;50.032;21.978;2022-07-22T01:16:11;67228.22;;;19.47;100.00
37132;BME280;23035;50.032;21.978;2022-07-22T01:21:17;67131.03;;;18.55;100.00
37132;BME280;23035;50.032;21.978;2022-07-22T01:26:21;67160.59;;;18.78;100.00
37132;BME280;23035;50.032;21.978;2022-07-22T01:31:25;67139.66;;;18.63;100.00
37132;BME280;23035;50.032;21.978;2022-07-22T01:36:33;67229.75;;;19.46;100.00
37132;BME280;23035;50.032;21.978;2022-07-22T01:41:38;67180.69;;;19.02;100.00
37132;BME280;23035;50.032;21.978;2022-07-22T01:46:46;67068.91;;;17.94;100.00
37132;BME280;23035;50.032;21.978;2022-07-22T01:51:54;67020.97;;;17.52;100.00
37132;BME280;23035;50.032;21.978;2022-07-22T01:56:57;67065.75;;;17.94;100.00
37132;BME280;23035;50.032;21.978;2022-07-22T02:02:01;67093.28;;;18.20;100.00
37132;BME280;23035;50.032;21.978;2022-07-22T02:07:07;67156.34;;;18.77;100.00
37132;BME280;23035;50.032;21.978;2022-07-22T02:12:10;67173.63;;;18.93;100.00
37132;BME280;23035;50.032;21.978;2022-07-22T02:17:20;67102.97;;;18.29;100.00
37132;BME280;23035;50.032;21.978;2022-07-22T02:22:25;67145.00;;;18.66;100.00
37132;BME280;23035;50.032;21.978;2022-07-22T02:27:29;67149.94;;;18.73;100.00
37132;BME280;23035;50.032;21.978;2022-07-22T02:32:32;67170.97;;;18.93;100.00
37132;BME280;23035;50.032;21.978;2022-07-22T02:37:38;67203.91;;;19.24;100.00
37132;BME280;23035;50.032;21.978;2022-07-22T02:42:43;67228.66;;;19.45;99.38
37132;BME280;23035;50.032;21.978;2022-07-22T02:47:48;67167.13;;;18.87;100.00
37132;BME280;23035;50.032;21.978;2022-07-22T02:52:54;67116.53;;;18.44;100.00
37132;BME280;23035;50.032;21.978;2022-07-22T02:58:04;67122.88;;;18.45;100.00
37132;BME280;23035;50.032;21.978;2022-07-22T03:03:08;67195.81;;;19.16;100.00
37132;BME280;23035;50.032;21.978;2022-07-22T03:08:14;67159.72;;;18.85;100.00
37132;BME280;23035;50.032;21.978;2022-07-22T03:13:18;67142.38;;;18.66;100.00
37132;BME280;23035;50.032;21.978;2022-07-22T03:18:22;67156.88;;;18.77;100.00
37132;BME280;23035;50.032;21.978;2022-07-22T03:23:28;67206.59;;;19.27;99.21
37132;BME280;23035;50.032;21.978;2022-07-22T03:28:33;67082.34;;;18.04;100.00
37132;BME280;23035;50.032;21.978;2022-07-22T03:33:37;66990.25;;;17.23;100.00
37132;BME280;23035;50.032;21.978;2022-07-22T03:38:44;67033.50;;;17.68;100.00
37132;BME280;23035;50.032;21.978;2022-07-22T03:43:48;67101.44;;;18.30;100.00
37132;BME280;23035;50.032;21.978;2022-07-22T03:48:53;67202.81;;;19.23;100.00
37132;BME280;23035;50.032;21.978;2022-07-22T03:53:59;67298.38;;;20.11;93.99
37132;BME280;23035;50.032;21.978;2022-07-22T03:59:04;67302.28;;;20.19;92.76
37132;BME280;23035;50.032;21.978;2022-07-22T04:04:08;67286.16;;;20.07;93.62
37132;BME280;23035;50.032;21.978;2022-07-22T04:09:21;67301.78;;;20.21;91.88
37132;BME280;23035;50.032;21.978;2022-07-22T04:14:25;67323.75;;;20.34;90.15
37132;BME280;23035;50.032;21.978;2022-07-22T04:19:32;67382.88;;;20.98;84.75
37132;BME280;23035;50.032;21.978;2022-07-22T04:24:44;67407.00;;;21.13;81.92
37132;BME280;23035;50.032;21.978;2022-07-22T04:29:48;67392.94;;;21.00;83.32
37132;BME280;23035;50.032;21.978;2022-07-22T04:34:52;67460.66;;;21.68;78.99
37132;BME280;23035;50.032;21.978;2022-07-22T04:39:57;67403.28;;;21.12;81.80
37132;BME280;23035;50.032;21.978;2022-07-22T04:45:02;67354.66;;;20.66;84.92
37132;BME280;23035;50.032;21.978;2022-07-22T04:50:08;67359.94;;;20.66;84.45
37132;BME280;23035;50.032;21.978;2022-07-22T04:55:14;67246.03;;;19.64;91.73
37132;BME280;23035;50.032;21.978;2022-07-22T05:00:18;67360.03;;;20.71;85.44
37132;BME280;23035;50.032;21.978;2022-07-22T05:05:31;67433.03;;;21.40;82.48
37132;BME280;23035;50.032;21.978;2022-07-22T05:10:37;67519.03;;;22.21;77.05
37132;BME280;23035;50.032;21.978;2022-07-22T05:15:41;67613.19;;;23.09;69.12
37132;BME280;23035;50.032;21.978;2022-07-22T05:20:45;67592.75;;;22.95;70.22
37132;BME280;23035;50.032;21.978;2022-07-22T05:25:57;67618.19;;;23.19;69.42
37132;BME280;23035;50.032;21.978;2022-07-22T05:31:03;67737.22;;;24.26;65.59
37132;BME280;23035;50.032;21.978;2022-07-22T05:36:09;67799.09;;;24.89;64.76
37132;BME280;23035;50.032;21.978;2022-07-22T05:41:23;67905.88;;;25.87;60.19
37132;BME280;23035;50.032;21.978;2022-07-22T05:46:27;67964.41;;;26.39;55.86
37132;BME280;23035;50.032;21.978;2022-07-22T05:51:31;67807.66;;;24.92;61.68
37132;BME280;23035;50.032;21.978;2022-07-22T05:56:39;67712.84;;;24.03;69.05
37132;BME280;23035;50.032;21.978;2022-07-22T06:01:43;67760.03;;;24.50;67.32
37132;BME280;23035;50.032;21.978;2022-07-22T06:07:12;67816.28;;;24.98;66.64
37132;BME280;23035;50.032;21.978;2022-07-22T06:12:19;67929.78;;;26.12;59.55
37132;BME280;23035;50.032;21.978;2022-07-22T06:17:23;67912.91;;;25.93;60.99
37132;BME280;23035;50.032;21.978;2022-07-22T06:22:43;67998.03;;;26.71;57.47
37132;BME280;23035;50.032;21.978;2022-07-22T06:27:49;68137.00;;;28.01;51.18
37132;BME280;23035;50.032;21.978;2022-07-22T06:32:56;68122.50;;;27.95;51.45
37132;BME280;23035;50.032;21.978;2022-07-22T06:38:02;68267.97;;;29.26;48.07
37132;BME280;23035;50.032;21.978;2022-07-22T06:43:31;67976.91;;;26.53;56.59
37132;BME280;23035;50.032;21.978;2022-07-22T06:48:55;67962.28;;;26.40;57.98
37132;BME280;23035;50.032;21.978;2022-07-22T06:54:31;68108.28;;;27.77;53.46
37132;BME280;23035;50.032;21.978;2022-07-22T06:59:49;68015.44;;;26.90;56.66
37132;BME280;23035;50.032;21.978;2022-07-22T07:04:54;68082.69;;;27.50;56.50
37132;BME280;23035;50.032;21.978;2022-07-22T07:09:59;68133.75;;;27.98;55.72
37132;BME280;23035;50.032;21.978;2022-07-22T07:15:21;68097.38;;;27.64;56.54
37132;BME280;23035;50.032;21.978;2022-07-22T07:20:30;68183.22;;;28.47;52.98
37132;BME280;23035;50.032;21.978;2022-07-22T07:25:34;68094.75;;;27.66;54.76
37132;BME280;23035;50.032;21.978;2022-07-22T07:30:40;68138.59;;;28.00;53.92
37132;BME280;23035;50.032;21.978;2022-07-22T07:35:44;68198.44;;;28.61;50.85
37132;BME280;23035;50.032;21.978;2022-07-22T07:40:53;68206.00;;;28.66;50.36
37132;BME280;23035;50.032;21.978;2022-07-22T07:45:59;68154.47;;;28.22;52.76
37132;BME280;23035;50.032;21.978;2022-07-22T07:51:03;68300.03;;;29.54;49.58
37132;BME280;23035;50.032;21.978;2022-07-22T07:56:13;68287.56;;;29.45;50.06
37132;BME280;23035;50.032;21.978;2022-07-22T08:01:27;68300.63;;;29.59;50.57
37132;BME280;23035;50.032;21.978;2022-07-22T08:07:01;68339.72;;;29.91;48.20
37132;BME280;23035;50.032;21.978;2022-07-22T08:12:05;68341.41;;;29.97;47.23
37132;BME280;23035;50.032;21.978;2022-07-22T08:17:30;68417.03;;;30.68;43.86
37132;BME280;23035;50.032;21.978;2022-07-22T08:22:38;68371.88;;;30.26;43.77
37132;BME280;23035;50.032;21.978;2022-07-22T08:27:45;68444.16;;;30.91;41.41
37132;BME280;23035;50.032;21.978;2022-07-22T08:32:51;68419.75;;;30.71;42.56
37132;BME280;23035;50.032;21.978;2022-07-22T08:37:55;68345.69;;;29.96;44.06
37132;BME280;23035;50.032;21.978;2022-07-22T08:43:00;68389.22;;;30.40;44.57
37132;BME280;23035;50.032;21.978;2022-07-22T08:48:07;68471.41;;;31.19;40.14
37132;BME280;23035;50.032;21.978;2022-07-22T08:53:48;68511.63;;;31.54;40.62
37132;BME280;23035;50.032;21.978;2022-07-22T08:58:52;68471.31;;;31.14;39.94
37132;BME280;23035;50.032;21.978;2022-07-22T09:03:58;68543.25;;;31.86;38.58
37132;BME280;23035;50.032;21.978;2022-07-22T09:09:09;68587.88;;;32.28;37.03
37132;BME280;23035;50.032;21.978;2022-07-22T09:14:43;68631.91;;;32.64;36.77
37132;BME280;23035;50.032;21.978;2022-07-22T09:20:15;68651.59;;;32.88;33.69
37132;BME280;23035;50.032;21.978;2022-07-22T09:25:59;68563.94;;;32.06;35.23
37132;BME280;23035;50.032;21.978;2022-07-22T09:31:23;68614.00;;;32.52;36.00
37132;BME280;23035;50.032;21.978;2022-07-22T09:36:55;68699.44;;;33.27;35.34
37132;BME280;23035;50.032;21.978;2022-07-22T09:42:03;68707.69;;;33.40;35.47
37132;BME280;23035;50.032;21.978;2022-07-22T09:47:26;68715.88;;;33.48;37.48
37132;BME280;23035;50.032;21.978;2022-07-22T09:53:04;68759.41;;;33.86;33.15
37132;BME280;23035;50.032;21.978;2022-07-22T09:58:14;68746.91;;;33.77;33.22
37132;BME280;23035;50.032;21.978;2022-07-22T10:03:25;68672.28;;;33.07;33.81
37132;BME280;23035;50.032;21.978;2022-07-22T10:08:33;68704.38;;;33.34;35.80
37132;BME280;23035;50.032;21.978;2022-07-22T10:13:37;68723.44;;;33.50;34.84
37132;BME280;23035;50.032;21.978;2022-07-22T10:18:44;68693.50;;;33.24;35.35
37132;BME280;23035;50.032;21.978;2022-07-22T10:24:11;68787.72;;;34.10;34.01
37132;BME280;23035;50.032;21.978;2022-07-22T10:29:42;68762.66;;;33.86;34.14
37132;BME280;23035;50.032;21.978;2022-07-22T10:35:22;68729.44;;;33.55;33.89
37132;BME280;23035;50.032;21.978;2022-07-22T10:40:32;68896.22;;;35.11;31.11
37132;BME280;23035;50.032;21.978;2022-07-22T10:45:50;68872.84;;;34.94;31.44
37132;BME280;23035;50.032;21.978;2022-07-22T10:51:05;68820.47;;;34.43;32.31
37132;BME280;23035;50.032;21.978;2022-07-22T10:56:22;68812.81;;;34.33;32.48
37132;BME280;23035;50.032;21.978;2022-07-22T11:01:30;68803.56;;;34.27;31.76
37132;BME280;23035;50.032;21.978;2022-07-22T11:06:35;68698.88;;;33.24;31.53
37132;BME280;23035;50.032;21.978;2022-07-22T11:11:44;68725.09;;;33.54;31.99
37132;BME280;23035;50.032;21.978;2022-07-22T11:16:50;68824.84;;;34.49;32.79
37132;BME280;23035;50.032;21.978;2022-07-22T11:21:56;68698.91;;;33.27;33.68
37132;BME280;23035;50.032;21.978;2022-07-22T11:27:03;68890.78;;;35.06;31.38
37132;BME280;23035;50.032;21.978;2022-07-22T11:32:09;69109.59;;;37.15;28.58
37132;BME280;23035;50.032;21.978;2022-07-22T11:37:15;69157.63;;;37.60;27.08
37132;BME280;23035;50.032;21.978;2022-07-22T11:42:25;69297.44;;;38.88;25.24
37132;BME280;23035;50.032;21.978;2022-07-22T11:47:29;69453.72;;;40.31;24.82
37132;BME280;23035;50.032;21.978;2022-07-22T11:52:33;69624.94;;;41.98;22.90
37132;BME280;23035;50.032;21.978;2022-07-22T11:57:47;69336.81;;;39.27;25.36
37132;BME280;23035;50.032;21.978;2022-07-22T12:02:51;69378.91;;;39.69;25.42
37132;BME280;23035;50.032;21.978;2022-07-22T12:07:55;69347.72;;;39.40;26.18
37132;BME280;23035;50.032;21.978;2022-07-22T12:13:00;69300.72;;;38.93;26.04
37132;BME280;23035;50.032;21.978;2022-07-22T12:18:19;69205.16;;;38.07;27.94
37132;BME280;23035;50.032;21.978;2022-07-22T12:23:25;69237.34;;;38.29;28.90
37132;BME280;23035;50.032;21.978;2022-07-22T12:28:31;69314.97;;;39.12;27.38
37132;BME280;23035;50.032;21.978;2022-07-22T12:33:35;69293.06;;;38.81;29.05
37132;BME280;23035;50.032;21.978;2022-07-22T12:38:39;69559.31;;;41.37;25.75
37132;BME280;23035;50.032;21.978;2022-07-22T12:43:45;69511.72;;;40.85;29.40
37132;BME280;23035;50.032;21.978;2022-07-22T12:48:51;69364.09;;;39.47;30.43
37132;BME280;23035;50.032;21.978;2022-07-22T12:53:55;69308.34;;;38.95;31.82
37132;BME280;23035;50.032;21.978;2022-07-22T12:59:01;69387.63;;;39.74;30.53
37132;BME280;23035;50.032;21.978;2022-07-22T13:04:05;69324.78;;;39.16;29.64
37132;BME280;23035;50.032;21.978;2022-07-22T13:09:09;69202.94;;;38.02;31.86
37132;BME280;23035;50.032;21.978;2022-07-22T13:14:20;69360.84;;;39.49;29.82
37132;BME280;23035;50.032;21.978;2022-07-22T13:19:24;69337.34;;;39.27;29.53
37132;BME280;23035;50.032;21.978;2022-07-22T13:24:28;69341.19;;;39.36;29.08
37132;BME280;23035;50.032;21.978;2022-07-22T13:29:33;69307.28;;;38.94;29.78
37132;BME280;23035;50.032;21.978;2022-07-22T13:34:37;69289.25;;;38.83;29.46
37132;BME280;23035;50.032;21.978;2022-07-22T13:39:41;69396.91;;;39.83;28.60
37132;BME280;23035;50.032;21.978;2022-07-22T13:44:50;69566.41;;;41.36;25.84
37132;BME280;23035;50.032;21.978;2022-07-22T13:49:53;69414.38;;;39.94;27.51
37132;BME280;23035;50.032;21.978;2022-07-22T13:54:58;69267.38;;;38.57;30.20
37132;BME280;23035;50.032;21.978;2022-07-22T14:00:04;69350.44;;;39.40;28.45
37132;BME280;23035;50.032;21.978;2022-07-22T14:05:16;69162.00;;;37.64;31.08
37132;BME280;23035;50.032;21.978;2022-07-22T14:10:20;69447.75;;;40.30;28.45
37132;BME280;23035;50.032;21.978;2022-07-22T14:15:26;69392.53;;;39.76;28.04
37132;BME280;23035;50.032;21.978;2022-07-22T14:20:31;69388.16;;;39.72;28.83
37132;BME280;23035;50.032;21.978;2022-07-22T14:25:36;69344.47;;;39.34;27.66
37132;BME280;23035;50.032;21.978;2022-07-22T14:30:41;69329.69;;;39.20;28.52
37132;BME280;23035;50.032;21.978;2022-07-22T14:35:45;69403.47;;;39.84;27.63
37132;BME280;23035;50.032;21.978;2022-07-22T14:40:49;69522.66;;;40.97;25.42
37132;BME280;23035;50.032;21.978;2022-07-22T14:45:54;69588.31;;;41.61;25.46
37132;BME280;23035;50.032;21.978;2022-07-22T14:50:58;69338.44;;;39.26;28.21
37132;BME280;23035;50.032;21.978;2022-07-22T14:56:02;69279.44;;;38.73;28.12
37132;BME280;23035;50.032;21.978;2022-07-22T15:01:08;69406.72;;;39.87;25.28
37132;BME280;23035;50.032;21.978;2022-07-22T15:06:12;69496.41;;;40.76;24.76
37132;BME280;23035;50.032;21.978;2022-07-22T15:11:15;69411.09;;;39.91;25.56
37132;BME280;23035;50.032;21.978;2022-07-22T15:16:21;69600.34;;;41.75;23.71
37132;BME280;23035;50.032;21.978;2022-07-22T15:21:25;69536.88;;;41.13;23.02
37132;BME280;23035;50.032;21.978;2022-07-22T15:26:33;69446.66;;;40.29;24.14
37132;BME280;23035;50.032;21.978;2022-07-22T15:31:38;69364.09;;;39.47;25.36
37132;BME280;23035;50.032;21.978;2022-07-22T15:36:42;69238.47;;;38.35;28.25
37132;BME280;23035;50.032;21.978;2022-07-22T15:41:46;69482.22;;;40.62;25.21
37132;BME280;23035;50.032;21.978;2022-07-22T15:46:51;69389.28;;;39.76;27.31
37132;BME280;23035;50.032;21.978;2022-07-22T15:51:56;69317.66;;;39.09;28.13
37132;BME280;23035;50.032;21.978;2022-07-22T15:57:00;69194.75;;;37.89;29.80
37132;BME280;23035;50.032;21.978;2022-07-22T16:02:19;69027.06;;;36.28;32.62
37132;BME280;23035;50.032;21.978;2022-07-22T16:07:23;68932.78;;;35.48;33.50
37132;BME280;23035;50.032;21.978;2022-07-22T16:12:27;68848.78;;;34.67;35.06
37132;BME280;23035;50.032;21.978;2022-07-22T16:17:32;68773.56;;;33.97;37.12
37132;BME280;23035;50.032;21.978;2022-07-22T16:22:36;68726.75;;;33.58;37.62
37132;BME280;23035;50.032;21.978;2022-07-22T16:27:40;68700.53;;;33.28;39.43
37132;BME280;23035;50.032;21.978;2022-07-22T16:32:45;68698.38;;;33.26;40.13
37132;BME280;23035;50.032;21.978;2022-07-22T16:37:55;68677.66;;;33.07;40.60
37132;BME280;23035;50.032;21.978;2022-07-22T16:43:04;68611.25;;;32.45;42.09
37132;BME280;23035;50.032;21.978;2022-07-22T16:48:09;68563.88;;;32.03;43.53
37132;BME280;23035;50.032;21.978;2022-07-22T16:53:13;68624.28;;;32.57;43.10
37132;BME280;23035;50.032;21.978;2022-07-22T16:58:17;68569.25;;;32.03;45.18
37132;BME280;23035;50.032;21.978;2022-07-22T17:03:22;68541.03;;;31.82;46.62
37132;BME280;23035;50.032;21.978;2022-07-22T17:08:28;68536.63;;;31.75;47.66
37132;BME280;23035;50.032;21.978;2022-07-22T17:13:32;68515.94;;;31.56;49.22
37132;BME280;23035;50.032;21.978;2022-07-22T17:18:37;68521.94;;;31.61;50.44
37132;BME280;23035;50.032;21.978;2022-07-22T17:23:41;68457.22;;;31.03;52.91
37132;BME280;23035;50.032;21.978;2022-07-22T17:28:45;68511.06;;;31.51;52.79
37132;BME280;23035;50.032;21.978;2022-07-22T17:33:51;68533.38;;;31.72;52.32
37132;BME280;23035;50.032;21.978;2022-07-22T17:38:55;68535.53;;;31.74;53.60
37132;BME280;23035;50.032;21.978;2022-07-22T17:44:00;68509.94;;;31.48;54.00
37132;BME280;23035;50.032;21.978;2022-07-22T17:49:05;68491.47;;;31.33;54.38
37132;BME280;23035;50.032;21.978;2022-07-22T17:54:09;68416.91;;;30.63;57.49
37132;BME280;23035;50.032;21.978;2022-07-22T17:59:12;68445.72;;;30.88;56.68
37132;BME280;23035;50.032;21.978;2022-07-22T18:04:18;68400.06;;;30.47;58.49
37132;BME280;23035;50.032;21.978;2022-07-22T18:09:22;68280.38;;;29.30;63.27
37132;BME280;23035;50.032;21.978;2022-07-22T18:14:29;68173.97;;;28.36;69.91
37132;BME280;23035;50.032;21.978;2022-07-22T18:19:34;68157.63;;;28.20;69.72
37132;BME280;23035;50.032;21.978;2022-07-22T18:24:37;68139.72;;;28.04;71.34
37132;BME280;23035;50.032;21.978;2022-07-22T18:29:41;68088.25;;;27.63;73.56
37132;BME280;23035;50.032;21.978;2022-07-22T18:34:46;68086.97;;;27.49;75.17
37132;BME280;23035;50.032;21.978;2022-07-22T18:39:50;68073.47;;;27.41;76.55
37132;BME280;23035;50.032;21.978;2022-07-22T18:44:54;68076.75;;;27.44;75.27
37132;BME280;23035;50.032;21.978;2022-07-22T18:50:04;68051.72;;;27.19;79.68
37132;BME280;23035;50.032;21.978;2022-07-22T18:55:08;68016.47;;;26.88;79.88
37132;BME280;23035;50.032;21.978;2022-07-22T19:00:12;68025.16;;;26.96;79.02
37132;BME280;23035;50.032;21.978;2022-07-22T19:05:18;68031.09;;;26.99;80.01
37132;BME280;23035;50.032;21.978;2022-07-22T19:10:21;67961.25;;;26.41;83.79
37132;BME280;23035;50.032;21.978;2022-07-22T19:15:25;68014.78;;;26.84;81.36
37132;BME280;23035;50.032;21.978;2022-07-22T19:20:30;68044.78;;;27.17;80.08
37132;BME280;23035;50.032;21.978;2022-07-22T19:25:34;68092.47;;;27.59;75.73
37132;BME280;23035;50.032;21.978;2022-07-22T19:30:39;67996.94;;;26.70;83.15
37132;BME280;23035;50.032;21.978;2022-07-22T19:35:44;68010.56;;;26.85;83.34
37132;BME280;23035;50.032;21.978;2022-07-22T19:40:48;68003.47;;;26.76;86.15
37132;BME280;23035;50.032;21.978;2022-07-22T19:45:51;67980.66;;;26.54;89.94
37132;BME280;23035;50.032;21.978;2022-07-22T19:50:56;67975.84;;;26.52;91.31
37132;BME280;23035;50.032;21.978;2022-07-22T19:56:00;67874.88;;;25.55;97.99
37132;BME280;23035;50.032;21.978;2022-07-22T20:01:04;67891.72;;;25.71;97.53
37132;BME280;23035;50.032;21.978;2022-07-22T20:06:09;68009.44;;;26.81;88.20
37132;BME280;23035;50.032;21.978;2022-07-22T20:11:13;68011.06;;;26.83;85.63
37132;BME280;23035;50.032;21.978;2022-07-22T20:17:29;67935.19;;;26.17;90.20
37132;BME280;23035;50.032;21.978;2022-07-22T20:22:33;67942.69;;;26.19;89.94
37132;BME280;23035;50.032;21.978;2022-07-22T20:27:38;67891.19;;;25.70;92.91
37132;BME280;23035;50.032;21.978;2022-07-22T20:32:43;67928.00;;;26.02;91.89
37132;BME280;23035;50.032;21.978;2022-07-22T20:37:47;67838.63;;;25.24;94.01
37132;BME280;23035;50.032;21.978;2022-07-22T20:42:51;67815.81;;;25.00;91.29
37132;BME280;23035;50.032;21.978;2022-07-22T20:47:56;67848.38;;;25.33;90.21
37132;BME280;23035;50.032;21.978;2022-07-22T20:52:59;67884.66;;;25.64;89.34
37132;BME280;23035;50.032;21.978;2022-07-22T20:58:03;67886.94;;;25.71;91.26
37132;BME280;23035;50.032;21.978;2022-07-22T21:03:09;67899.78;;;25.76;91.75
37132;BME280;23035;50.032;21.978;2022-07-22T21:08:13;67913.84;;;25.87;90.98
37132;BME280;23035;50.032;21.978;2022-07-22T21:13:16;67917.25;;;25.97;92.36
37132;BME280;23035;50.032;21.978;2022-07-22T21:18:22;67905.22;;;25.81;94.48
37132;BME280;23035;50.032;21.978;2022-07-22T21:23:25;67875.38;;;25.53;97.01
37132;BME280;23035;50.032;21.978;2022-07-22T21:28:31;67875.44;;;25.56;96.43
37132;BME280;23035;50.032;21.978;2022-07-22T21:33:36;67879.22;;;25.59;96.91
37132;BME280;23035;50.032;21.978;2022-07-22T21:38:40;67722.66;;;24.15;100.00
37132;BME280;23035;50.032;21.978;2022-07-22T21:43:43;67646.66;;;23.36;100.00
37132;BME280;23035;50.032;21.978;2022-07-22T21:48:48;67671.69;;;23.64;100.00
37132;BME280;23035;50.032;21.978;2022-07-22T21:53:57;67745.34;;;24.34;100.00
37132;BME280;23035;50.032;21.978;2022-07-22T21:59:01;67746.44;;;24.35;100.00
37132;BME280;23035;50.032;21.978;2022-07-22T22:04:07;67726.91;;;24.16;100.00
37132;BME280;23035;50.032;21.978;2022-07-22T22:09:10;67745.34;;;24.34;100.00
37132;BME280;23035;50.032;21.978;2022-07-22T22:14:15;67746.94;;;24.33;100.00
37132;BME280;23035;50.032;21.978;2022-07-22T22:19:21;67743.78;;;24.35;100.00
37132;BME280;23035;50.032;21.978;2022-07-22T22:24:25;67694.88;;;23.81;100.00
37132;BME280;23035;50.032;21.978;2022-07-22T22:29:29;67673.81;;;23.64;100.00
37132;BME280;23035;50.032;21.978;2022-07-22T22:34:34;67696.66;;;23.90;100.00
37132;BME280;23035;50.032;21.978;2022-07-22T22:39:40;67632.69;;;23.28;100.00
37132;BME280;23035;50.032;21.978;2022-07-22T22:44:43;67672.19;;;23.62;100.00
37132;BME280;23035;50.032;21.978;2022-07-22T22:49:48;67658.13;;;23.52;100.00
37132;BME280;23035;50.032;21.978;2022-07-22T22:54:52;67615.38;;;23.11;100.00
37132;BME280;23035;50.032;21.978;2022-07-22T22:59:56;67642.97;;;23.37;100.00
37132;BME280;23035;50.032;21.978;2022-07-22T23:05:01;67651.59;;;23.43;100.00
37132;BME280;23035;50.032;21.978;2022-07-22T23:10:05;67633.22;;;23.28;100.00
37132;BME280;23035;50.032;21.978;2022-07-22T23:15:10;67612.13;;;23.08;100.00
37132;BME280;23035;50.032;21.978;2022-07-22T23:20:15;67596.84;;;22.89;100.00
37132;BME280;23035;50.032;21.978;2022-07-22T23:25:19;67587.22;;;22.85;100.00
37132;BME280;23035;50.032;21.978;2022-07-22T23:30:24;67570.44;;;22.69;100.00
37132;BME280;23035;50.032;21.978;2022-07-22T23:35:29;67603.84;;;22.93;100.00
37132;BME280;23035;50.032;21.978;2022-07-22T23:40:35;67670.66;;;23.66;100.00
37132;BME280;23035;50.032;21.978;2022-07-22T23:45:39;67605.63;;;23.02;100.00
37132;BME280;23035;50.032;21.978;2022-07-22T23:50:45;67635.81;;;23.26;100.00
37132;BME280;23035;50.032;21.978;2022-07-22T23:55:48;67607.25;;;23.04;100.00
